sensor_id;sensor_type;location;lat;lon;timestamp;pressure;altitude;pressure_sealevel;temperature;humidity
21803;BME280;18591;47.080;22.214;2022-12-29T00:00:22;100441.31;;;4.08;55.17
21803;BME280;18591;47.080;22.214;2022-12-29T00:02:27;100444.88;;;4.11;55.16
21803;BME280;18591;47.080;22.214;2022-12-29T00:04:30;100452.84;;;4.16;54.76
21803;BME280;18591;47.080;22.214;2022-12-29T00:06:32;100451.09;;;4.18;55.00
21803;BME280;18591;47.080;22.214;2022-12-29T00:08:34;100456.44;;;4.17;55.07
21803;BME280;18591;47.080;22.214;2022-12-29T00:10:43;100452.84;;;4.13;54.99
21803;BME280;18591;47.080;22.214;2022-12-29T00:12:45;100455.50;;;4.05;54.97
21803;BME280;18591;47.080;22.214;2022-12-29T00:15:06;100456.38;;;4.10;54.82
21803;BME280;18591;47.080;22.214;2022-12-29T00:17:26;100453.72;;;4.06;55.37
21803;BME280;18591;47.080;22.214;2022-12-29T00:19:29;100455.50;;;4.08;55.11
21803;BME280;18591;47.080;22.214;2022-12-29T00:21:50;100455.53;;;4.14;55.17
21803;BME280;18591;47.080;22.214;2022-12-29T00:24:19;100460.84;;;4.14;55.13
21803;BME280;18591;47.080;22.214;2022-12-29T00:26:28;100456.44;;;4.17;55.02
21803;BME280;18591;47.080;22.214;2022-12-29T00:28:50;100444.88;;;4.13;55.08
21803;BME280;18591;47.080;22.214;2022-12-29T00:31:11;100443.97;;;4.11;54.96
21803;BME280;18591;47.080;22.214;2022-12-29T00:33:33;100446.66;;;4.12;54.63
21803;BME280;18591;47.080;22.214;2022-12-29T00:35:59;100442.22;;;4.13;54.41
21803;BME280;18591;47.080;22.214;2022-12-29T00:38:05;100436.00;;;4.11;54.53
21803;BME280;18591;47.080;22.214;2022-12-29T00:40:38;100434.22;;;4.13;54.52
21803;BME280;18591;47.080;22.214;2022-12-29T00:42:59;100438.66;;;4.08;54.56
21803;BME280;18591;47.080;22.214;2022-12-29T00:45:20;100434.22;;;4.05;55.20
21803;BME280;18591;47.080;22.214;2022-12-29T00:47:22;100436.00;;;4.08;54.92
21803;BME280;18591;47.080;22.214;2022-12-29T00:49:24;100434.22;;;4.05;55.17
21803;BME280;18591;47.080;22.214;2022-12-29T00:51:35;100452.84;;;4.07;55.03
21803;BME280;18591;47.080;22.214;2022-12-29T00:53:37;100451.97;;;4.06;54.95
21803;BME280;18591;47.080;22.214;2022-12-29T00:55:39;100447.50;;;4.05;54.96
21803;BME280;18591;47.080;22.214;2022-12-29T00:57:42;100446.59;;;4.00;54.93
21803;BME280;18591;47.080;22.214;2022-12-29T00:59:44;100448.38;;;3.97;54.71
21803;BME280;18591;47.080;22.214;2022-12-29T01:01:51;100444.84;;;3.96;55.24
21803;BME280;18591;47.080;22.214;2022-12-29T01:03:54;100440.41;;;3.97;54.95
21803;BME280;18591;47.080;22.214;2022-12-29T01:06:06;100438.63;;;3.97;54.85
21803;BME280;18591;47.080;22.214;2022-12-29T01:08:11;100433.31;;;3.97;54.71
21803;BME280;18591;47.080;22.214;2022-12-29T01:10:13;100431.53;;;3.98;54.60
21803;BME280;18591;47.080;22.214;2022-12-29T01:12:17;100421.78;;;4.00;54.84
21803;BME280;18591;47.080;22.214;2022-12-29T01:14:39;100419.16;;;4.04;54.46
21803;BME280;18591;47.080;22.214;2022-12-29T01:16:41;100420.06;;;4.06;54.67
21803;BME280;18591;47.080;22.214;2022-12-29T01:18:43;100412.94;;;4.02;54.41
21803;BME280;18591;47.080;22.214;2022-12-29T01:20:45;100411.19;;;4.01;54.48
21803;BME280;18591;47.080;22.214;2022-12-29T01:22:47;100410.25;;;3.98;54.95
21803;BME280;18591;47.080;22.214;2022-12-29T01:24:53;100409.38;;;4.03;54.76
21803;BME280;18591;47.080;22.214;2022-12-29T01:26:55;100407.59;;;4.01;54.70
21803;BME280;18591;47.080;22.214;2022-12-29T01:28:57;100397.84;;;3.98;54.99
21803;BME280;18591;47.080;22.214;2022-12-29T01:31:01;100399.63;;;3.95;54.71
21803;BME280;18591;47.080;22.214;2022-12-29T01:33:03;100397.88;;;3.97;54.53
21803;BME280;18591;47.080;22.214;2022-12-29T01:35:05;100400.50;;;3.95;54.54
21803;BME280;18591;47.080;22.214;2022-12-29T01:37:09;100396.09;;;3.94;54.64
21803;BME280;18591;47.080;22.214;2022-12-29T01:39:11;100393.41;;;3.92;54.25
21803;BME280;18591;47.080;22.214;2022-12-29T01:41:15;100396.94;;;3.90;54.47
21803;BME280;18591;47.080;22.214;2022-12-29T01:43:19;100390.75;;;3.86;54.42
21803;BME280;18591;47.080;22.214;2022-12-29T01:45:21;100389.88;;;3.86;54.72
21803;BME280;18591;47.080;22.214;2022-12-29T01:47:44;100389.84;;;3.78;54.32
21803;BME280;18591;47.080;22.214;2022-12-29T01:49:47;100384.53;;;3.84;54.51
21803;BME280;18591;47.080;22.214;2022-12-29T01:51:57;100382.78;;;3.80;54.26
21803;BME280;18591;47.080;22.214;2022-12-29T01:54:02;100374.78;;;3.82;54.05
21803;BME280;18591;47.080;22.214;2022-12-29T01:56:09;100378.31;;;3.76;54.44
21803;BME280;18591;47.080;22.214;2022-12-29T01:58:15;100385.41;;;3.79;54.26
21803;BME280;18591;47.080;22.214;2022-12-29T02:00:21;100383.66;;;3.81;54.32
21803;BME280;18591;47.080;22.214;2022-12-29T02:02:24;100379.22;;;3.86;54.13
21803;BME280;18591;47.080;22.214;2022-12-29T02:04:29;100374.81;;;3.88;53.78
21803;BME280;18591;47.080;22.214;2022-12-29T02:06:39;100380.13;;;3.92;53.81
21803;BME280;18591;47.080;22.214;2022-12-29T02:08:46;100368.59;;;3.95;53.78
21803;BME280;18591;47.080;22.214;2022-12-29T02:10:49;100367.75;;;3.99;54.01
21803;BME280;18591;47.080;22.214;2022-12-29T02:12:52;100365.97;;;4.03;53.61
21803;BME280;18591;47.080;22.214;2022-12-29T02:14:58;100362.41;;;3.99;53.53
21803;BME280;18591;47.080;22.214;2022-12-29T02:25:02;100371.25;;;3.92;53.42
21803;BME280;18591;47.080;22.214;2022-12-29T02:31:56;100368.59;;;3.83;53.52
21803;BME280;18591;47.080;22.214;2022-12-29T02:34:17;100369.47;;;3.79;53.73
21803;BME280;18591;47.080;22.214;2022-12-29T02:40:55;100365.97;;;3.90;53.26
21803;BME280;18591;47.080;22.214;2022-12-29T02:45:17;100367.75;;;3.99;53.18
21803;BME280;18591;47.080;22.214;2022-12-29T02:52:15;100373.97;;;4.12;52.86
21803;BME280;18591;47.080;22.214;2022-12-29T02:54:19;100374.88;;;4.14;52.70
21803;BME280;18591;47.080;22.214;2022-12-29T02:56:41;100376.63;;;4.15;52.69
21803;BME280;18591;47.080;22.214;2022-12-29T02:58:44;100373.97;;;4.12;52.71
21803;BME280;18591;47.080;22.214;2022-12-29T03:05:40;100373.06;;;4.14;52.35
21803;BME280;18591;47.080;22.214;2022-12-29T03:12:48;100375.72;;;4.08;52.34
21803;BME280;18591;47.080;22.214;2022-12-29T03:15:41;100381.94;;;4.04;52.25
21803;BME280;18591;47.080;22.214;2022-12-29T03:18:20;100389.03;;;4.07;52.37
21803;BME280;18591;47.080;22.214;2022-12-29T03:20:29;100385.47;;;4.05;52.11
21803;BME280;18591;47.080;22.214;2022-12-29T03:22:38;100369.50;;;4.02;52.16
21803;BME280;18591;47.080;22.214;2022-12-29T03:24:48;100369.50;;;4.05;52.09
21803;BME280;18591;47.080;22.214;2022-12-29T03:26:55;100373.03;;;3.98;52.61
21803;BME280;18591;47.080;22.214;2022-12-29T03:29:02;100379.25;;;3.95;52.66
21803;BME280;18591;47.080;22.214;2022-12-29T03:31:06;100373.06;;;3.93;52.61
21803;BME280;18591;47.080;22.214;2022-12-29T03:33:13;100369.50;;;4.00;52.45
21803;BME280;18591;47.080;22.214;2022-12-29T03:35:19;100365.06;;;4.01;52.18
21803;BME280;18591;47.080;22.214;2022-12-29T03:37:27;100364.19;;;4.05;52.00
21803;BME280;18591;47.080;22.214;2022-12-29T03:39:32;100363.31;;;4.06;52.18
21803;BME280;18591;47.080;22.214;2022-12-29T03:41:35;100363.31;;;4.06;52.14
21803;BME280;18591;47.080;22.214;2022-12-29T03:43:38;100357.13;;;4.11;52.26
21803;BME280;18591;47.080;22.214;2022-12-29T03:45:40;100362.41;;;4.08;51.91
21803;BME280;18591;47.080;22.214;2022-12-29T03:47:43;100358.00;;;4.10;52.03
21803;BME280;18591;47.080;22.214;2022-12-29T03:49:46;100354.44;;;4.07;52.17
21803;BME280;18591;47.080;22.214;2022-12-29T03:51:49;100355.34;;;4.07;52.13
21803;BME280;18591;47.080;22.214;2022-12-29T03:53:53;100350.00;;;4.13;52.01
21803;BME280;18591;47.080;22.214;2022-12-29T03:55:56;100350.91;;;4.12;51.63
21803;BME280;18591;47.080;22.214;2022-12-29T03:57:58;100351.78;;;4.16;51.65
21803;BME280;18591;47.080;22.214;2022-12-29T04:00:19;100358.03;;;4.17;51.71
21803;BME280;18591;47.080;22.214;2022-12-29T04:02:24;100358.91;;;4.23;51.62
21803;BME280;18591;47.080;22.214;2022-12-29T04:04:27;100356.25;;;4.25;51.75
21803;BME280;18591;47.080;22.214;2022-12-29T04:06:29;100356.22;;;4.19;51.38
21803;BME280;18591;47.080;22.214;2022-12-29T04:08:38;100349.16;;;4.19;51.49
21803;BME280;18591;47.080;22.214;2022-12-29T04:10:41;100353.56;;;4.20;51.67
21803;BME280;18591;47.080;22.214;2022-12-29T04:12:43;100350.91;;;4.20;51.75
21803;BME280;18591;47.080;22.214;2022-12-29T04:14:48;100347.38;;;4.20;51.78
21803;BME280;18591;47.080;22.214;2022-12-29T04:16:52;100353.59;;;4.22;51.40
21803;BME280;18591;47.080;22.214;2022-12-29T04:18:54;100359.78;;;4.21;51.32
21803;BME280;18591;47.080;22.214;2022-12-29T04:20:57;100357.13;;;4.22;51.15
21803;BME280;18591;47.080;22.214;2022-12-29T04:23:04;100361.53;;;4.19;51.47
21803;BME280;18591;47.080;22.214;2022-12-29T04:25:08;100357.09;;;4.13;51.30
21803;BME280;18591;47.080;22.214;2022-12-29T04:27:12;100357.13;;;4.11;51.60
21803;BME280;18591;47.080;22.214;2022-12-29T04:29:49;100350.00;;;4.06;51.71
21803;BME280;18591;47.080;22.214;2022-12-29T04:32:20;100351.78;;;4.04;51.85
21803;BME280;18591;47.080;22.214;2022-12-29T04:34:26;100354.47;;;4.04;51.62
21803;BME280;18591;47.080;22.214;2022-12-29T04:36:29;100344.69;;;4.06;51.89
21803;BME280;18591;47.080;22.214;2022-12-29T04:38:32;100354.44;;;4.08;51.87
21803;BME280;18591;47.080;22.214;2022-12-29T04:40:42;100351.78;;;4.08;51.93
21803;BME280;18591;47.080;22.214;2022-12-29T04:42:45;100352.66;;;4.10;51.55
21803;BME280;18591;47.080;22.214;2022-12-29T04:44:47;100352.69;;;4.09;51.41
21803;BME280;18591;47.080;22.214;2022-12-29T04:47:23;100348.25;;;4.06;51.15
21803;BME280;18591;47.080;22.214;2022-12-29T04:49:56;100356.19;;;4.03;51.35
21803;BME280;18591;47.080;22.214;2022-12-29T04:52:07;100357.13;;;4.04;51.14
21803;BME280;18591;47.080;22.214;2022-12-29T04:54:11;100353.56;;;4.08;51.26
21803;BME280;18591;47.080;22.214;2022-12-29T04:56:14;100354.44;;;4.10;50.88
21803;BME280;18591;47.080;22.214;2022-12-29T04:58:17;100358.88;;;4.09;50.85
21803;BME280;18591;47.080;22.214;2022-12-29T05:00:24;100355.34;;;4.10;50.60
21803;BME280;18591;47.080;22.214;2022-12-29T05:02:27;100358.88;;;4.11;50.80
21803;BME280;18591;47.080;22.214;2022-12-29T05:04:32;100355.31;;;4.13;50.65
21803;BME280;18591;47.080;22.214;2022-12-29T05:06:35;100350.03;;;4.12;50.62
21803;BME280;18591;47.080;22.214;2022-12-29T05:08:37;100359.78;;;4.13;50.68
21803;BME280;18591;47.080;22.214;2022-12-29T05:10:39;100356.22;;;4.15;50.58
21803;BME280;18591;47.080;22.214;2022-12-29T05:12:45;100352.66;;;4.10;50.46
21803;BME280;18591;47.080;22.214;2022-12-29T05:14:48;100349.13;;;4.08;50.62
21803;BME280;18591;47.080;22.214;2022-12-29T05:16:50;100349.13;;;4.04;49.95
21803;BME280;18591;47.080;22.214;2022-12-29T05:18:53;100353.56;;;4.05;50.69
21803;BME280;18591;47.080;22.214;2022-12-29T05:20:55;100357.09;;;3.99;50.18
21803;BME280;18591;47.080;22.214;2022-12-29T05:22:58;100356.22;;;4.09;50.21
21803;BME280;18591;47.080;22.214;2022-12-29T05:28:07;100354.44;;;4.10;50.54
21803;BME280;18591;47.080;22.214;2022-12-29T05:30:16;100356.22;;;4.08;50.32
21803;BME280;18591;47.080;22.214;2022-12-29T05:32:19;100352.66;;;4.06;50.24
21803;BME280;18591;47.080;22.214;2022-12-29T05:38:13;100344.72;;;4.09;49.78
21803;BME280;18591;47.080;22.214;2022-12-29T05:40:17;100345.59;;;4.12;49.91
21803;BME280;18591;47.080;22.214;2022-12-29T05:42:21;100344.72;;;4.15;49.41
21803;BME280;18591;47.080;22.214;2022-12-29T05:44:36;100339.38;;;4.15;49.81
21803;BME280;18591;47.080;22.214;2022-12-29T05:46:47;100332.28;;;4.19;49.70
21803;BME280;18591;47.080;22.214;2022-12-29T05:49:07;100337.63;;;4.14;49.54
21803;BME280;18591;47.080;22.214;2022-12-29T05:51:24;100338.50;;;4.13;49.57
21803;BME280;18591;47.080;22.214;2022-12-29T05:53:28;100338.50;;;4.11;49.75
21803;BME280;18591;47.080;22.214;2022-12-29T05:55:31;100342.94;;;4.12;49.82
21803;BME280;18591;47.080;22.214;2022-12-29T05:57:34;100345.59;;;4.12;49.79
21803;BME280;18591;47.080;22.214;2022-12-29T05:59:48;100344.69;;;4.10;49.79
21803;BME280;18591;47.080;22.214;2022-12-29T06:01:50;100341.16;;;4.07;49.54
21803;BME280;18591;47.080;22.214;2022-12-29T06:03:52;100350.88;;;4.03;49.74
21803;BME280;18591;47.080;22.214;2022-12-29T06:05:55;100346.47;;;4.05;50.16
21803;BME280;18591;47.080;22.214;2022-12-29T06:07:57;100344.69;;;4.03;50.38
21803;BME280;18591;47.080;22.214;2022-12-29T06:09:59;100338.50;;;4.02;50.12
21803;BME280;18591;47.080;22.214;2022-12-29T06:12:04;100343.81;;;4.04;50.21
21803;BME280;18591;47.080;22.214;2022-12-29T06:14:09;100340.28;;;4.06;49.88
21803;BME280;18591;47.080;22.214;2022-12-29T06:16:11;100342.91;;;4.00;49.82
21803;BME280;18591;47.080;22.214;2022-12-29T06:18:14;100346.47;;;4.08;49.81
21803;BME280;18591;47.080;22.214;2022-12-29T06:20:21;100338.50;;;4.07;49.42
21803;BME280;18591;47.080;22.214;2022-12-29T06:22:23;100342.03;;;4.10;49.95
21803;BME280;18591;47.080;22.214;2022-12-29T06:24:25;100353.56;;;4.15;49.78
21803;BME280;18591;47.080;22.214;2022-12-29T06:26:27;100358.91;;;4.14;49.90
21803;BME280;18591;47.080;22.214;2022-12-29T06:28:30;100358.00;;;4.07;49.80
21803;BME280;18591;47.080;22.214;2022-12-29T06:30:33;100351.81;;;4.11;50.17
21803;BME280;18591;47.080;22.214;2022-12-29T06:32:36;100354.47;;;4.14;49.73
21803;BME280;18591;47.080;22.214;2022-12-29T06:34:41;100358.00;;;4.18;49.73
21803;BME280;18591;47.080;22.214;2022-12-29T06:36:43;100358.91;;;4.22;49.32
21803;BME280;18591;47.080;22.214;2022-12-29T06:38:45;100354.47;;;4.28;48.98
21803;BME280;18591;47.080;22.214;2022-12-29T06:40:48;100351.81;;;4.36;49.10
21803;BME280;18591;47.080;22.214;2022-12-29T06:42:59;100349.16;;;4.41;48.67
21803;BME280;18591;47.080;22.214;2022-12-29T06:45:15;100350.03;;;4.43;49.02
21803;BME280;18591;47.080;22.214;2022-12-29T06:47:18;100345.59;;;4.46;49.32
21803;BME280;18591;47.080;22.214;2022-12-29T06:49:20;100339.41;;;4.55;48.55
21803;BME280;18591;47.080;22.214;2022-12-29T06:51:26;100347.38;;;4.58;48.50
21803;BME280;18591;47.080;22.214;2022-12-29T06:53:28;100353.59;;;4.60;48.83
21803;BME280;18591;47.080;22.214;2022-12-29T06:55:32;100355.34;;;4.58;48.16
21803;BME280;18591;47.080;22.214;2022-12-29T06:57:34;100358.88;;;4.69;48.39
21803;BME280;18591;47.080;22.214;2022-12-29T06:59:37;100356.19;;;4.80;48.82
21803;BME280;18591;47.080;22.214;2022-12-29T07:01:39;100352.66;;;4.83;48.50
21803;BME280;18591;47.080;22.214;2022-12-29T07:03:41;100353.53;;;4.89;48.58
21803;BME280;18591;47.080;22.214;2022-12-29T07:05:44;100352.63;;;4.96;48.07
21803;BME280;18591;47.080;22.214;2022-12-29T07:07:46;100348.19;;;5.06;47.96
21803;BME280;18591;47.080;22.214;2022-12-29T07:09:48;100346.38;;;5.05;48.22
21803;BME280;18591;47.080;22.214;2022-12-29T07:11:50;100348.16;;;5.08;48.18
21803;BME280;18591;47.080;22.214;2022-12-29T07:13:53;100350.84;;;5.06;47.76
21803;BME280;18591;47.080;22.214;2022-12-29T07:15:55;100349.94;;;5.02;48.09
21803;BME280;18591;47.080;22.214;2022-12-29T07:17:57;100340.16;;;5.08;47.54
21803;BME280;18591;47.080;22.214;2022-12-29T07:19:59;100344.56;;;5.18;48.21
21803;BME280;18591;47.080;22.214;2022-12-29T07:22:01;100353.44;;;5.24;48.20
21803;BME280;18591;47.080;22.214;2022-12-29T07:24:04;100349.84;;;5.35;47.86
21803;BME280;18591;47.080;22.214;2022-12-29T07:26:08;100356.06;;;5.40;48.31
21803;BME280;18591;47.080;22.214;2022-12-29T07:28:11;100348.88;;;5.51;47.35
21803;BME280;18591;47.080;22.214;2022-12-29T07:30:14;100348.88;;;5.56;47.42
21803;BME280;18591;47.080;22.214;2022-12-29T07:32:18;100350.63;;;5.57;47.34
21803;BME280;18591;47.080;22.214;2022-12-29T07:34:20;100353.25;;;5.64;47.35
21803;BME280;18591;47.080;22.214;2022-12-29T07:36:22;100346.09;;;5.74;47.63
21803;BME280;18591;47.080;22.214;2022-12-29T07:38:31;100341.59;;;5.82;47.47
21803;BME280;18591;47.080;22.214;2022-12-29T07:40:34;100348.75;;;5.74;46.65
21803;BME280;18591;47.080;22.214;2022-12-29T07:42:36;100339.81;;;5.84;46.93
21803;BME280;18591;47.080;22.214;2022-12-29T07:44:41;100344.22;;;5.92;47.12
21803;BME280;18591;47.080;22.214;2022-12-29T07:46:50;100340.63;;;6.00;46.79
21803;BME280;18591;47.080;22.214;2022-12-29T07:48:57;100354.78;;;6.13;46.10
21803;BME280;18591;47.080;22.214;2022-12-29T07:50:59;100352.06;;;6.22;46.48
21803;BME280;18591;47.080;22.214;2022-12-29T07:53:02;100344.06;;;6.19;45.09
21803;BME280;18591;47.080;22.214;2022-12-29T07:55:05;100345.81;;;6.25;45.28
21803;BME280;18591;47.080;22.214;2022-12-29T07:57:08;100356.44;;;6.26;46.66
21803;BME280;18591;47.080;22.214;2022-12-29T07:59:10;100353.78;;;6.29;47.23
21803;BME280;18591;47.080;22.214;2022-12-29T08:01:13;100352.06;;;6.18;47.08
21803;BME280;18591;47.080;22.214;2022-12-29T08:03:16;100363.63;;;6.20;48.26
21803;BME280;18591;47.080;22.214;2022-12-29T08:05:18;100362.69;;;6.25;48.51
21803;BME280;18591;47.080;22.214;2022-12-29T08:07:21;100367.19;;;6.22;48.09
21803;BME280;18591;47.080;22.214;2022-12-29T08:09:23;100360.94;;;6.23;48.54
21803;BME280;18591;47.080;22.214;2022-12-29T08:11:25;100361.03;;;6.09;48.46
21803;BME280;18591;47.080;22.214;2022-12-29T08:13:27;100360.06;;;6.22;47.97
21803;BME280;18591;47.080;22.214;2022-12-29T08:15:29;100356.47;;;6.25;47.85
21803;BME280;18591;47.080;22.214;2022-12-29T08:17:33;100358.28;;;6.24;47.04
21803;BME280;18591;47.080;22.214;2022-12-29T08:19:36;100349.34;;;6.25;47.54
21803;BME280;18591;47.080;22.214;2022-12-29T08:21:39;100350.16;;;6.35;47.37
21803;BME280;18591;47.080;22.214;2022-12-29T08:23:41;100363.47;;;6.43;46.72
21803;BME280;18591;47.080;22.214;2022-12-29T08:25:43;100369.63;;;6.51;47.47
21803;BME280;18591;47.080;22.214;2022-12-29T08:27:46;100370.44;;;6.61;47.24
21803;BME280;18591;47.080;22.214;2022-12-29T08:29:48;100372.97;;;6.73;47.18
21803;BME280;18591;47.080;22.214;2022-12-29T08:31:50;100370.28;;;6.74;47.31
21803;BME280;18591;47.080;22.214;2022-12-29T08:33:52;100372.88;;;6.84;47.03
21803;BME280;18591;47.080;22.214;2022-12-29T08:36:05;100368.38;;;6.86;46.58
21803;BME280;18591;47.080;22.214;2022-12-29T08:38:07;100370.06;;;6.96;46.66
21803;BME280;18591;47.080;22.214;2022-12-29T08:40:09;100369.97;;;7.07;47.07
21803;BME280;18591;47.080;22.214;2022-12-29T08:42:12;100362.81;;;7.10;46.12
21803;BME280;18591;47.080;22.214;2022-12-29T08:44:14;100343.19;;;7.13;46.35
21803;BME280;18591;47.080;22.214;2022-12-29T08:46:19;100346.69;;;7.18;46.74
21803;BME280;18591;47.080;22.214;2022-12-29T08:48:22;100347.47;;;7.28;46.34
21803;BME280;18591;47.080;22.214;2022-12-29T08:50:24;100351.84;;;7.35;47.01
21803;BME280;18591;47.080;22.214;2022-12-29T08:52:26;100350.94;;;7.36;45.54
21803;BME280;18591;47.080;22.214;2022-12-29T08:54:28;100350.84;;;7.42;47.01
21803;BME280;18591;47.080;22.214;2022-12-29T08:56:31;100347.28;;;7.43;47.34
21803;BME280;18591;47.080;22.214;2022-12-29T08:58:34;100346.41;;;7.39;47.25
21803;BME280;18591;47.080;22.214;2022-12-29T09:00:38;100340.97;;;7.47;46.82
21803;BME280;18591;47.080;22.214;2022-12-29T09:02:40;100342.56;;;7.63;46.90
21803;BME280;18591;47.080;22.214;2022-12-29T09:04:42;100338.09;;;7.62;46.27
21803;BME280;18591;47.080;22.214;2022-12-29T09:06:44;100338.03;;;7.69;46.35
21803;BME280;18591;47.080;22.214;2022-12-29T09:08:47;100336.16;;;7.75;45.73
21803;BME280;18591;47.080;22.214;2022-12-29T09:10:50;100331.63;;;7.80;45.24
21803;BME280;18591;47.080;22.214;2022-12-29T09:12:52;100335.22;;;7.79;45.80
21803;BME280;18591;47.080;22.214;2022-12-29T09:14:54;100327.13;;;7.84;45.42
21803;BME280;18591;47.080;22.214;2022-12-29T09:16:56;100331.63;;;7.80;45.53
21803;BME280;18591;47.080;22.214;2022-12-29T09:19:17;100344.13;;;7.80;45.93
21803;BME280;18591;47.080;22.214;2022-12-29T09:21:19;100351.09;;;7.92;46.93
21803;BME280;18591;47.080;22.214;2022-12-29T09:23:43;100348.38;;;7.93;46.90
21803;BME280;18591;47.080;22.214;2022-12-29T09:25:47;100347.44;;;7.96;47.23
21803;BME280;18591;47.080;22.214;2022-12-29T09:27:49;100335.81;;;8.00;47.33
21803;BME280;18591;47.080;22.214;2022-12-29T09:29:54;100327.72;;;8.04;47.36
21803;BME280;18591;47.080;22.214;2022-12-29T09:31:57;100330.28;;;8.12;47.86
21803;BME280;18591;47.080;22.214;2022-12-29T09:33:59;100332.09;;;8.08;48.69
21803;BME280;18591;47.080;22.214;2022-12-29T09:36:01;100325.69;;;8.20;48.42
21803;BME280;18591;47.080;22.214;2022-12-29T09:38:04;100318.59;;;8.18;47.51
21803;BME280;18591;47.080;22.214;2022-12-29T09:40:09;100312.34;;;8.17;48.40
21803;BME280;18591;47.080;22.214;2022-12-29T09:42:47;100312.28;;;8.20;48.51
21803;BME280;18591;47.080;22.214;2022-12-29T09:47:09;100290.69;;;8.31;48.28
21803;BME280;18591;47.080;22.214;2022-12-29T09:51:23;100276.28;;;8.40;47.98
21803;BME280;18591;47.080;22.214;2022-12-29T09:55:42;100279.63;;;8.54;48.08
21803;BME280;18591;47.080;22.214;2022-12-29T09:57:57;100279.47;;;8.62;47.78
21803;BME280;18591;47.080;22.214;2022-12-29T10:02:32;100265.88;;;8.72;46.94
21803;BME280;18591;47.080;22.214;2022-12-29T10:04:43;100260.38;;;8.80;47.39
21803;BME280;18591;47.080;22.214;2022-12-29T10:09:34;100261.81;;;8.98;46.27
21803;BME280;18591;47.080;22.214;2022-12-29T10:19:01;100242.94;;;9.45;45.56
21803;BME280;18591;47.080;22.214;2022-12-29T10:25:32;100234.09;;;9.78;46.19
21803;BME280;18591;47.080;22.214;2022-12-29T10:27:36;100228.50;;;9.89;45.76
21803;BME280;18591;47.080;22.214;2022-12-29T10:29:50;100233.59;;;10.00;45.48
21803;BME280;18591;47.080;22.214;2022-12-29T10:32:04;100227.22;;;10.04;44.05
21803;BME280;18591;47.080;22.214;2022-12-29T10:34:21;100231.41;;;10.16;45.29
21803;BME280;18591;47.080;22.214;2022-12-29T10:38:44;100232.94;;;10.26;44.76
21803;BME280;18591;47.080;22.214;2022-12-29T10:41:02;100233.81;;;10.27;44.43
21803;BME280;18591;47.080;22.214;2022-12-29T10:43:25;100230.22;;;10.29;44.24
21803;BME280;18591;47.080;22.214;2022-12-29T10:45:30;100226.63;;;10.30;45.21
21803;BME280;18591;47.080;22.214;2022-12-29T10:47:38;100218.38;;;10.36;44.73
21803;BME280;18591;47.080;22.214;2022-12-29T10:49:45;100223.72;;;10.38;45.20
21803;BME280;18591;47.080;22.214;2022-12-29T10:51:50;100221.75;;;10.44;45.76
21803;BME280;18591;47.080;22.214;2022-12-29T10:54:08;100220.59;;;10.53;44.89
21803;BME280;18591;47.080;22.214;2022-12-29T10:58:29;100217.25;;;10.78;46.22
21803;BME280;18591;47.080;22.214;2022-12-29T11:00:33;100217.03;;;10.85;46.79
21803;BME280;18591;47.080;22.214;2022-12-29T11:07:07;100210.53;;;11.24;46.61
21803;BME280;18591;47.080;22.214;2022-12-29T11:09:24;100215.56;;;11.34;46.32
21803;BME280;18591;47.080;22.214;2022-12-29T11:11:43;100213.50;;;11.44;46.79
21803;BME280;18591;47.080;22.214;2022-12-29T11:13:49;100207.91;;;11.50;46.80
21803;BME280;18591;47.080;22.214;2022-12-29T11:15:51;100205.88;;;11.59;46.71
21803;BME280;18591;47.080;22.214;2022-12-29T11:17:57;100202.16;;;11.63;46.04
21803;BME280;18591;47.080;22.214;2022-12-29T11:20:27;100195.75;;;11.67;45.38
21803;BME280;18591;47.080;22.214;2022-12-29T11:22:34;100199.06;;;11.75;46.22
21803;BME280;18591;47.080;22.214;2022-12-29T11:24:46;100202.50;;;11.80;46.25
21803;BME280;18591;47.080;22.214;2022-12-29T11:26:50;100198.75;;;11.84;46.05
21803;BME280;18591;47.080;22.214;2022-12-29T11:31:21;100199.47;;;11.91;45.71
21803;BME280;18591;47.080;22.214;2022-12-29T11:33:24;100192.22;;;11.93;46.34
21803;BME280;18591;47.080;22.214;2022-12-29T11:35:35;100196.66;;;11.94;46.14
21803;BME280;18591;47.080;22.214;2022-12-29T11:37:41;100185.75;;;11.98;46.36
21803;BME280;18591;47.080;22.214;2022-12-29T11:39:56;100181.06;;;12.05;46.53
21803;BME280;18591;47.080;22.214;2022-12-29T11:42:00;100169.19;;;12.11;46.15
21803;BME280;18591;47.080;22.214;2022-12-29T11:44:05;100174.41;;;12.15;46.20
21803;BME280;18591;47.080;22.214;2022-12-29T11:46:20;100171.72;;;12.15;46.18
21803;BME280;18591;47.080;22.214;2022-12-29T11:48:29;100175.22;;;12.17;46.04
21803;BME280;18591;47.080;22.214;2022-12-29T11:50:37;100174.06;;;12.25;46.14
21803;BME280;18591;47.080;22.214;2022-12-29T11:52:41;100178.63;;;12.23;46.65
21803;BME280;18591;47.080;22.214;2022-12-29T11:54:44;100174.91;;;12.27;46.44
21803;BME280;18591;47.080;22.214;2022-12-29T11:56:46;100186.56;;;12.27;46.65
21803;BME280;18591;47.080;22.214;2022-12-29T11:58:49;100179.44;;;12.26;46.57
21803;BME280;18591;47.080;22.214;2022-12-29T12:00:52;100172.09;;;12.30;46.44
21803;BME280;18591;47.080;22.214;2022-12-29T12:02:59;100181.06;;;12.30;46.31
21803;BME280;18591;47.080;22.214;2022-12-29T12:05:10;100173.94;;;12.29;46.09
21803;BME280;18591;47.080;22.214;2022-12-29T12:07:33;100171.19;;;12.31;46.11
21803;BME280;18591;47.080;22.214;2022-12-29T12:09:47;100161.31;;;12.30;45.66
21803;BME280;18591;47.080;22.214;2022-12-29T12:11:54;100157.75;;;12.29;45.85
21803;BME280;18591;47.080;22.214;2022-12-29T12:16:12;100158.44;;;12.36;46.27
21803;BME280;18591;47.080;22.214;2022-12-29T12:18:28;100153.81;;;12.39;46.05